Terminal Aerodrome Forecast
Issued by NWS Duluth, MN

Home | Current Version | Previous Version | Text Only | Print | Product List | Glossary On
Versions: 1 2 3 4 5 6 7 8 9 10 11 12 13 14 15 16 17 18 19 20 21 22 23
000
FTUS43 KDLH 031302 AAA
TAFDLH
TAF AMD
KDLH 031302Z 0313/0412 09008KT 1/4SM -DZ FG VV002
      TEMPO 0314/0316 1SM BR
     FM031600 10012KT P6SM SCT003 OVC007
     FM032000 08010KT P6SM SCT008
     FM040500 07005KT 5SM BR SCT008 BKN010
     FM040800 09008KT 1SM BR BKN008 OVC010=

USA.gov is the U.S. government's official web portal to all federal, state and local government web resources and services.